Palmdale, CA (93551)

7:08 PM PDT on May 05, 2015 (GMT -0700)
Our Top Notch Ranch LV | | Change Station
CLOSE
Current Station
Personal Weather Station
Location: Leona Valley, CA
Elevation: 3383 ft
Nearby Weather Stations
Active Advisory: Wind Advisory Active Notice: Public Information Statement

Elev 3383 ft 34.61 °N, 118.24 °W | Updated 1 minute ago

Clear
Clear
51.4 °F
Feels Like 51.4 °F
N
13.0
Wind Variable Wind from WSW
Gusts 20.0 mph

Today
High -- | Low -- °F
--% Chance of Precip.
Yesterday
High -- | Low -- °F
Precip. -- in
5:58 AM 7:40 PM
Waning Gibbous, 96% visible
Pressure 29.82 in
Visibility 10.0 miles
Clouds Clear
Dew Point 44 °F
Humidity 76%
Rainfall 0.00 in
Snow Depth Not available.
UV 0 out of 12
Pollen 5.60 out of 12
Air Quality Not available.
Flu Activity Sporadic
METAR KPMD 060153Z AUTO 22016KT 10SM CLR 16/06 A2985 RMK AO2 PK WND 23026/0116 SLP096 T01610061

More Conditions Fewer Conditions

Pressure 29.82 in
Visibility 10.0 miles
Clouds Clear
Dew Point 44 °F
Humidity 76%
Rainfall 0.00 in
Snow Depth Not available.
UV 0 out of 12
Pollen 5.60 out of 12
Air Quality Not available.
Flu Activity Sporadic
METAR KPMD 060153Z AUTO 22016KT 10SM CLR 16/06 A2985 RMK AO2 PK WND 23026/0116 SLP096 T01610061

More Conditions Fewer Conditions

10-Day Weather Forecast

Almanac

Astronomy

May. 05, 2015 Rise Set
Actual Time
Civil Twilight
Nautical Twilight
Astronomical Twilight
Moon
Length of Visible Light
Length of Day
Tomorrow will be .
, % of the Moon is Illuminated

Today's Extremes

State Highs State Lows

Community

WunderPhotos

Upload Photos

1,819,040 photos uploaded!

WunderBlogs® & News

Nearby

Air Quality

  Air Quality AQ Index Pollutant
Not available.

Snow Depth

Station Depth Elevation

Earthquake Activity

City Distance Mag. Time & Date
Minimum magnitude displayed is 2.5.

Coastal Water Temperatures

Place Temperature

Stations

Nearby Weather Stations

Station Location Temp. Windchill Dew Point Humidity Wind Precip. Elev Updated Type
                   
Wind Advisory
Statement as of 5:41 PM PDT on May 05, 2015

... Wind Advisory remains in effect until 9 PM PDT Wednesday...

* winds... southwest 20 to 30 mph with gusts up to 45 mph... except
isolated gusts up to 55 mph in the foothills.

* Timing... strongest winds will occur in the afternoon and evening hours.

* Impacts... major roadways that could be affected include highways
14 and 138. In addition... areas of blowing dust and sand could
restrict visibilities. Driving could be difficult for those with
high profile vehicles.

Precautionary/preparedness actions...

When driving... use extra caution. Be prepared for sudden gusty
cross winds.